Aérodrome :
LOGIN :

S'inscrire | Disclaimer

   EN    FR    IT 

 










Légende :    VFR   VFR Marginal   IFR   IFR Intensif   IFR Très Intensif
Visi : 
Plafond : 
>= 8 km
>= 3000ft
5 à 8 km
1000 à 3000 ft
1500m à 5 km
500 à 1000 ft
800 à 1500m
200 à 500 ft
< 800m
< 200 ft
Symboles :   Orages  Brouillard  Fortes neiges  Fortes précipitations  Vent > 20 kt
SIGMETs :   Divers  Orages  Givrage  Turbulence  Onde Orograph.  Cendres Volcan.






- Altitude de l'aérodrome : 433 ft
- Code IATA : CCF


LFMK - Carcassonne

DERNIER METAR :
  • 151530Z AUTO 12007KT 060V160 CAVOK 14/10 Q1010 BECMG OVC010

METARs EXPIRÉS :
  • 151500Z AUTO 09011KT 070V130 CAVOK 14/10 Q1011 BECMG OVC010
  • 151430Z AUTO 09011KT 070V130 CAVOK 15/10 Q1011 BECMG BKN010
  • 151400Z AUTO 09010KT CAVOK 15/10 Q1010 BECMG BKN010
  • 151330Z AUTO 09010KT CAVOK 15/11 Q1011 BECMG BKN010
  • 151300Z AUTO 07013KT 9999 FEW017 15/11 Q1011 BECMG BKN010

TAF TAF LFMK
Valide du 15 à 15h jusqu'au 16 à 15h UTC


151400Z 1515/1615 07012KT CAVOK
BECMG 1515/1518 OVC010
TEMPO 1518/1604 OVC005
BECMG 1604/1606 08020G30KT OVC020
TEMPO 1606/1615 08030G40KT



MET'MAP, la Météo Aéronautique d'un coup d'oeil ! - Copyright ORBIFLY Décembre 2007 - Disclaimer

ORBIFLY MET'MAP TEAM :

Programmation & Développement : Alexandra Zaïnal
Sur une idée originale de : Baudouin d'Aumeries
Assistance à la programmation : Marc-Olivier Méhu
Soutien technique & logistique : Manuel Goepfert

Contact : metmap@orbifly.com




SOURCES & CREDITS :

   NOAA